Time;durP1;ratioP1;P1;durP2;ratioP2;P2;SDS_P1;SDS_P2;PMS_P1;PMS_P2;Temp;Humidity;BMP_temperature;BMP_pressure;BME280_temperature;BME280_humidity;BME280_pressure;Samples;Min_cycle;Max_cycle;Signal;HPM_P1;HPM_P2
2021/08/20 00:00:49;;;;;;;18.90;17.02;;;15.80;99.90;;;;;;5112944;28;20023;-81
2021/08/20 00:03:14;;;;;;;18.85;16.83;;;15.80;99.90;;;;;;5113948;28;20472;-76
2021/08/20 00:05:40;;;;;;;18.95;17.05;;;15.80;99.90;;;;;;5116312;28;20055;-80
2021/08/20 00:08:06;;;;;;;18.63;16.70;;;15.80;99.90;;;;;;5116177;28;20092;-80
2021/08/20 00:10:32;;;;;;;18.25;16.45;;;15.80;99.90;;;;;;5117429;28;20024;-81
2021/08/20 00:12:58;;;;;;;19.02;17.15;;;15.80;99.90;;;;;;5116201;28;20051;-79
2021/08/20 00:15:24;;;;;;;20.23;17.65;;;15.70;99.90;;;;;;5117294;28;20384;-75
2021/08/20 00:17:49;;;;;;;18.33;16.30;;;15.70;99.90;;;;;;5115647;28;20023;-80
2021/08/20 00:20:15;;;;;;;18.73;16.33;;;15.60;99.90;;;;;;5116888;28;20027;-81
2021/08/20 00:22:41;;;;;;;27.38;16.20;;;15.50;99.90;;;;;;5117040;28;20048;-75
2021/08/20 00:25:07;;;;;;;17.48;15.73;;;15.40;99.90;;;;;;5117504;28;20100;-79
2021/08/20 00:27:33;;;;;;;18.48;16.58;;;15.20;99.90;;;;;;5116554;28;20099;-78
2021/08/20 00:29:58;;;;;;;20.65;16.45;;;15.10;99.90;;;;;;5116843;28;20052;-80
2021/08/20 00:32:24;;;;;;;22.38;17.15;;;15.10;99.90;;;;;;5116440;28;20019;-78
2021/08/20 00:34:49;;;;;;;18.42;16.27;;;15.00;99.90;;;;;;5116702;28;20072;-78
2021/08/20 00:37:15;;;;;;;19.00;16.65;;;15.00;99.90;;;;;;5117082;28;20095;-79
2021/08/20 00:39:42;;;;;;;18.58;16.45;;;14.90;99.90;;;;;;5116269;28;20063;-74
2021/08/20 00:42:07;;;;;;;19.73;16.83;;;14.90;99.90;;;;;;5117173;28;20023;-83
2021/08/20 00:44:33;;;;;;;17.55;15.73;;;14.90;99.90;;;;;;5116806;28;20020;-77
2021/08/20 00:46:59;;;;;;;16.63;15.13;;;14.80;99.90;;;;;;5114974;28;20031;-79
2021/08/20 00:49:24;;;;;;;18.00;16.00;;;14.80;99.90;;;;;;5116793;28;20055;-81
2021/08/20 00:51:51;;;;;;;24.08;17.42;;;14.80;99.90;;;;;;5116674;28;20387;-79
2021/08/20 00:54:18;;;;;;;17.08;15.50;;;14.70;99.90;;;;;;5116328;28;20020;-80
2021/08/20 00:56:45;;;;;;;18.63;16.60;;;14.70;99.90;;;;;;5115300;28;20023;-82
2021/08/20 00:59:12;;;;;;;17.52;15.73;;;14.70;99.90;;;;;;5115005;28;20391;-82
2021/08/20 01:01:38;;;;;;;17.27;15.55;;;14.70;99.90;;;;;;5115807;28;20023;-78
2021/08/20 01:04:05;;;;;;;18.75;15.85;;;14.60;99.90;;;;;;5116357;28;20107;-81
2021/08/20 01:06:31;;;;;;;16.50;15.00;;;14.70;99.90;;;;;;5116651;28;20028;-74
2021/08/20 01:08:57;;;;;;;18.85;16.30;;;14.60;99.90;;;;;;5115623;28;20028;-81
2021/08/20 01:11:25;;;;;;;19.50;15.90;;;14.70;99.90;;;;;;5116327;28;20018;-78
2021/08/20 01:13:52;;;;;;;16.85;15.18;;;14.70;99.90;;;;;;5115812;28;20483;-83
2021/08/20 01:16:17;;;;;;;17.08;15.32;;;14.80;99.90;;;;;;5114278;28;20019;-82
2021/08/20 01:18:43;;;;;;;18.70;14.48;;;14.80;99.90;;;;;;5115650;28;20505;-82
2021/08/20 01:21:11;;;;;;;15.18;13.32;;;14.80;99.90;;;;;;5114848;28;20028;-80
2021/08/20 01:23:37;;;;;;;17.45;15.20;;;14.80;99.90;;;;;;5115735;28;20387;-81
2021/08/20 01:26:04;;;;;;;17.10;15.48;;;14.80;99.90;;;;;;5114653;28;20371;-78
2021/08/20 01:28:30;;;;;;;17.25;14.68;;;14.80;99.90;;;;;;5114830;28;20027;-79
2021/08/20 01:31:01;;;;;;;16.77;15.07;;;14.80;99.90;;;;;;5115213;28;20432;-79
2021/08/20 01:33:27;;;;;;;15.82;13.98;;;14.80;99.90;;;;;;5114603;28;20030;-81
2021/08/20 01:35:52;;;;;;;16.27;14.65;;;14.80;99.90;;;;;;5114915;28;20376;-81
2021/08/20 01:38:18;;;;;;;16.65;13.90;;;14.80;99.90;;;;;;5114305;28;20125;-81
2021/08/20 01:40:43;;;;;;;15.95;13.68;;;14.80;99.90;;;;;;5115372;28;20020;-80
2021/08/20 01:43:09;;;;;;;16.95;14.02;;;14.80;99.90;;;;;;5115188;28;20028;-79
2021/08/20 01:45:34;;;;;;;16.95;14.52;;;14.80;99.90;;;;;;5115950;28;20027;-81
2021/08/20 01:48:00;;;;;;;15.90;14.27;;;14.80;99.90;;;;;;5115399;28;20023;-79
2021/08/20 01:50:25;;;;;;;18.08;13.93;;;14.80;99.90;;;;;;5114801;28;20529;-81
2021/08/20 01:52:51;;;;;;;20.25;14.25;;;14.80;99.90;;;;;;5115565;28;20098;-81
2021/08/20 01:55:16;;;;;;;15.57;13.80;;;14.80;99.90;;;;;;5115553;28;20023;-81
2021/08/20 01:57:44;;;;;;;17.13;14.73;;;14.80;99.90;;;;;;5114614;28;20016;-82
2021/08/20 02:00:11;;;;;;;15.93;14.25;;;14.70;99.90;;;;;;5114011;28;20020;-81
2021/08/20 02:02:37;;;;;;;16.65;14.95;;;14.60;99.90;;;;;;5115177;28;20444;-82
2021/08/20 02:05:03;;;;;;;18.27;14.45;;;14.50;99.90;;;;;;5114283;28;20094;-82
2021/08/20 02:07:29;;;;;;;17.45;15.60;;;14.40;99.90;;;;;;5115143;28;20051;-80
2021/08/20 02:09:54;;;;;;;15.88;14.20;;;14.40;99.90;;;;;;5114908;28;20055;-81
2021/08/20 02:12:20;;;;;;;17.00;14.05;;;14.30;99.90;;;;;;5114533;28;20058;-79
2021/08/20 02:14:45;;;;;;;16.17;14.40;;;14.30;99.90;;;;;;5114809;28;20024;-78
2021/08/20 02:17:11;;;;;;;16.73;13.63;;;14.40;99.90;;;;;;5115216;28;20379;-77
2021/08/20 02:19:36;;;;;;;16.05;13.88;;;14.50;99.90;;;;;;5114293;28;20074;-81
2021/08/20 02:22:02;;;;;;;16.13;14.10;;;14.60;99.90;;;;;;5113255;28;20072;-80
2021/08/20 02:24:28;;;;;;;16.05;13.88;;;14.70;99.90;;;;;;5113539;28;20011;-77
2021/08/20 02:26:53;;;;;;;21.40;15.10;;;14.80;99.90;;;;;;5113520;28;20018;-78
2021/08/20 02:29:19;;;;;;;17.88;13.95;;;14.90;99.90;;;;;;5114685;28;20028;-81
2021/08/20 02:31:44;;;;;;;15.85;14.00;;;15.00;99.90;;;;;;5114738;28;20545;-74
2021/08/20 02:34:10;;;;;;;16.15;13.40;;;15.10;99.90;;;;;;5112829;28;20357;-79
2021/08/20 02:36:35;;;;;;;14.90;13.43;;;15.10;99.90;;;;;;5114559;28;20472;-81
2021/08/20 02:39:01;;;;;;;16.88;13.93;;;15.20;99.90;;;;;;5113451;28;20036;-79
2021/08/20 02:41:26;;;;;;;16.38;14.70;;;15.30;99.90;;;;;;5114390;28;20019;-77
2021/08/20 02:43:52;;;;;;;21.45;15.50;;;15.30;99.90;;;;;;5114113;28;20476;-80
2021/08/20 02:46:18;;;;;;;15.70;14.02;;;15.30;99.90;;;;;;5113891;28;20112;-78
2021/08/20 02:48:44;;;;;;;17.05;13.95;;;15.30;99.90;;;;;;5114144;28;20377;-81
2021/08/20 02:51:10;;;;;;;15.63;14.02;;;15.30;99.90;;;;;;5113203;28;20028;-79
2021/08/20 02:53:36;;;;;;;23.77;15.45;;;15.30;99.90;;;;;;5112406;28;20020;-78
2021/08/20 02:56:02;;;;;;;16.90;14.77;;;15.30;99.90;;;;;;5114094;28;20043;-82
2021/08/20 02:58:27;;;;;;;20.52;15.90;;;15.30;99.90;;;;;;5112877;28;20031;-81
2021/08/20 03:00:54;;;;;;;19.45;15.52;;;15.30;99.90;;;;;;5113114;28;20165;-81
2021/08/20 03:03:19;;;;;;;22.08;15.18;;;15.30;99.90;;;;;;5114492;28;20038;-82
2021/08/20 03:05:45;;;;;;;19.17;15.23;;;15.40;99.90;;;;;;5106928;28;20024;-81
2021/08/20 03:08:10;;;;;;;18.13;16.25;;;15.40;99.90;;;;;;5092203;28;20392;-81
2021/08/20 03:10:36;;;;;;;16.58;14.82;;;15.40;99.90;;;;;;5093704;28;20035;-82
2021/08/20 03:13:02;;;;;;;18.27;15.50;;;15.40;99.90;;;;;;5093407;28;20036;-81
2021/08/20 03:15:28;;;;;;;21.75;16.00;;;15.50;99.90;;;;;;5093136;28;20016;-81
2021/08/20 03:17:53;;;;;;;17.40;15.52;;;15.40;99.90;;;;;;5092040;28;20479;-81
2021/08/20 03:20:19;;;;;;;17.40;15.35;;;15.50;99.90;;;;;;5093498;28;20028;-82
2021/08/20 03:22:44;;;;;;;19.65;15.57;;;15.50;99.90;;;;;;5092663;28;20024;-82
2021/08/20 03:25:11;;;;;;;20.33;16.25;;;15.50;99.90;;;;;;5093760;28;20028;-78
2021/08/20 03:27:37;;;;;;;19.77;16.55;;;15.60;99.90;;;;;;5093314;28;20496;-82
2021/08/20 03:30:04;;;;;;;19.13;16.83;;;15.60;99.90;;;;;;5092353;28;20020;-79
2021/08/20 03:32:29;;;;;;;18.15;16.35;;;15.60;99.90;;;;;;5093249;28;20487;-70
2021/08/20 03:34:55;;;;;;;18.10;15.98;;;15.60;99.90;;;;;;5093162;28;20099;-78
2021/08/20 03:37:20;;;;;;;19.88;17.38;;;15.60;99.90;;;;;;5088565;28;20024;-79
2021/08/20 03:39:46;;;;;;;20.25;17.15;;;15.60;99.90;;;;;;5091080;28;20036;-79
2021/08/20 03:42:11;;;;;;;20.65;18.58;;;15.60;99.90;;;;;;5093412;28;20357;-78
2021/08/20 03:44:37;;;;;;;20.75;18.42;;;15.60;99.90;;;;;;5092713;28;20050;-78
2021/08/20 03:47:03;;;;;;;19.67;17.70;;;15.60;99.90;;;;;;5092821;28;20052;-74
2021/08/20 03:49:29;;;;;;;19.40;17.30;;;15.60;99.90;;;;;;5092339;28;20089;-79
2021/08/20 03:51:54;;;;;;;22.75;19.42;;;15.60;99.90;;;;;;5092798;28;20431;-75
2021/08/20 03:54:20;;;;;;;21.55;19.35;;;15.60;99.90;;;;;;5093134;28;20059;-81
2021/08/20 03:56:46;;;;;;;20.55;17.67;;;15.70;99.90;;;;;;5090601;28;20020;-77
2021/08/20 03:59:11;;;;;;;28.92;20.75;;;15.70;99.90;;;;;;5092066;28;20036;-76
2021/08/20 04:01:37;;;;;;;21.90;19.27;;;15.70;99.90;;;;;;5092885;28;20043;-80
2021/08/20 04:04:03;;;;;;;23.95;18.05;;;15.70;99.90;;;;;;5092158;28;20032;-75
2021/08/20 04:06:28;;;;;;;20.42;18.10;;;15.80;99.90;;;;;;5091610;28;20109;-80
2021/08/20 04:08:54;;;;;;;24.13;17.98;;;15.80;99.90;;;;;;5092614;28;20100;-75
2021/08/20 04:11:19;;;;;;;23.67;20.30;;;15.80;99.90;;;;;;5092110;28;20431;-79
2021/08/20 04:13:45;;;;;;;21.23;18.27;;;15.80;99.90;;;;;;5091283;28;20044;-77
2021/08/20 04:16:10;;;;;;;22.10;19.42;;;15.80;99.90;;;;;;5093043;28;20490;-75
2021/08/20 04:18:40;;;;;;;21.75;19.63;;;15.80;99.90;;;;;;5092275;28;20059;-80
2021/08/20 04:21:06;;;;;;;21.02;18.38;;;15.80;99.90;;;;;;5092538;28;20399;-75
2021/08/20 04:23:31;;;;;;;24.13;18.15;;;15.80;99.90;;;;;;5093141;28;20108;-81
2021/08/20 04:25:57;;;;;;;21.38;18.92;;;15.80;99.90;;;;;;5090707;28;20043;-79
2021/08/20 04:28:22;;;;;;;21.52;19.23;;;15.80;99.90;;;;;;5092916;28;20089;-77
2021/08/20 04:30:48;;;;;;;24.38;18.17;;;15.80;99.90;;;;;;5092500;28;20024;-81
2021/08/20 04:33:14;;;;;;;23.92;19.70;;;15.80;99.90;;;;;;5092349;28;20411;-74
2021/08/20 04:35:39;;;;;;;22.15;19.55;;;15.80;99.90;;;;;;5092738;28;20476;-75
2021/08/20 04:38:05;;;;;;;23.95;19.60;;;15.80;99.90;;;;;;5091724;28;20476;-77
2021/08/20 04:40:31;;;;;;;25.88;19.65;;;15.80;99.90;;;;;;5091957;28;20020;-81
2021/08/20 04:42:57;;;;;;;22.83;20.30;;;15.90;99.90;;;;;;5092381;28;20025;-79
2021/08/20 04:45:23;;;;;;;20.88;18.70;;;15.90;99.90;;;;;;5090959;28;20035;-81
2021/08/20 04:47:49;;;;;;;21.98;19.42;;;15.90;99.90;;;;;;5090392;28;20190;-81
2021/08/20 04:50:15;;;;;;;23.83;20.67;;;15.90;99.90;;;;;;5093796;28;20017;-82
2021/08/20 04:52:41;;;;;;;25.02;20.00;;;16.00;99.90;;;;;;5093829;28;20024;-73
2021/08/20 04:55:07;;;;;;;22.08;18.88;;;16.00;99.90;;;;;;5095447;28;20063;-82
2021/08/20 04:57:33;;;;;;;27.17;20.23;;;16.00;99.90;;;;;;5096211;28;20487;-82
2021/08/20 04:59:59;;;;;;;27.85;19.45;;;16.00;99.90;;;;;;5093875;28;20040;-81
2021/08/20 05:02:28;;;;;;;22.00;19.60;;;16.00;99.90;;;;;;5095001;28;20039;-80
2021/08/20 05:04:53;;;;;;;20.98;18.80;;;16.00;99.90;;;;;;5095840;28;20032;-81
2021/08/20 05:07:19;;;;;;;21.20;19.05;;;16.00;99.90;;;;;;5095320;28;20426;-82
2021/08/20 05:09:45;;;;;;;21.52;19.38;;;16.00;99.90;;;;;;5095691;28;20059;-81
2021/08/20 05:12:11;;;;;;;23.88;19.70;;;16.10;99.90;;;;;;5096167;28;20404;-82
2021/08/20 05:14:36;;;;;;;23.67;19.77;;;16.10;99.90;;;;;;5094420;28;20027;-82
2021/08/20 05:17:02;;;;;;;20.98;18.83;;;16.10;99.90;;;;;;5095763;28;20024;-82
2021/08/20 05:19:27;;;;;;;22.80;19.73;;;16.10;99.90;;;;;;5095609;28;20065;-83
2021/08/20 05:21:53;;;;;;;21.20;18.45;;;16.20;99.90;;;;;;5093601;28;20031;-82
2021/08/20 05:24:18;;;;;;;22.83;19.73;;;16.20;99.90;;;;;;5095569;28;20032;-75
2021/08/20 05:26:44;;;;;;;23.45;19.17;;;16.20;99.90;;;;;;5095606;28;20123;-78
2021/08/20 05:29:09;;;;;;;21.95;18.60;;;16.20;99.90;;;;;;5093616;28;20081;-77
2021/08/20 05:31:35;;;;;;;23.27;19.45;;;16.30;99.90;;;;;;5095414;28;20083;-80
2021/08/20 05:34:01;;;;;;;26.02;19.40;;;16.30;99.90;;;;;;5095268;28;20039;-81
2021/08/20 05:36:27;;;;;;;21.08;18.88;;;16.30;99.90;;;;;;5093437;28;20016;-79
2021/08/20 05:38:53;;;;;;;23.05;18.65;;;16.30;99.90;;;;;;5093876;28;20365;-72
2021/08/20 05:41:18;;;;;;;20.85;18.48;;;16.30;99.90;;;;;;5095605;28;20031;-79
2021/08/20 05:43:44;;;;;;;21.60;18.58;;;16.30;99.90;;;;;;5093152;28;20376;-76
2021/08/20 05:46:09;;;;;;;25.77;19.08;;;16.30;99.90;;;;;;5095459;28;20545;-73
2021/08/20 05:48:35;;;;;;;22.02;19.05;;;16.40;99.90;;;;;;5095262;28;20026;-76
2021/08/20 05:51:01;;;;;;;23.80;20.38;;;16.40;99.90;;;;;;5094154;28;20384;-79
2021/08/20 05:53:26;;;;;;;34.17;19.35;;;16.40;99.90;;;;;;5095165;28;20085;-80
2021/08/20 05:55:52;;;;;;;22.20;19.20;;;16.50;99.90;;;;;;5094595;28;20511;-75
2021/08/20 05:58:17;;;;;;;22.17;19.77;;;16.60;99.90;;;;;;5095118;28;20035;-81
2021/08/20 06:00:43;;;;;;;22.65;19.33;;;16.60;99.90;;;;;;5094612;28;20026;-77
2021/08/20 06:03:09;;;;;;;20.77;18.65;;;16.70;99.90;;;;;;5101538;28;20038;-79
2021/08/20 06:05:34;;;;;;;23.65;19.52;;;16.70;99.90;;;;;;5096764;28;20532;-79
2021/08/20 06:08:01;;;;;;;22.75;20.17;;;16.80;99.90;;;;;;5094491;28;20372;-82
2021/08/20 06:10:27;;;;;;;22.85;20.42;;;16.90;99.90;;;;;;5102131;28;20055;-79
2021/08/20 06:12:53;;;;;;;24.48;19.67;;;16.90;99.90;;;;;;5114923;28;20176;-75
2021/08/20 06:15:18;;;;;;;24.45;20.13;;;17.00;99.90;;;;;;5113909;28;20080;-82
2021/08/20 06:17:46;;;;;;;24.08;19.35;;;17.10;99.90;;;;;;5114115;28;20495;-80
2021/08/20 06:20:12;;;;;;;24.75;20.52;;;17.10;99.90;;;;;;5094953;28;20036;-81
2021/08/20 06:22:37;;;;;;;25.80;19.80;;;17.20;99.90;;;;;;5094758;28;20020;-73
2021/08/20 06:25:03;;;;;;;21.75;18.70;;;17.20;99.90;;;;;;5093251;28;20431;-82
2021/08/20 06:27:29;;;;;;;23.35;19.20;;;17.20;99.90;;;;;;5100940;28;20046;-77
2021/08/20 06:29:54;;;;;;;22.80;19.17;;;17.30;99.90;;;;;;5106688;28;20526;-74
2021/08/20 06:32:20;;;;;;;23.60;19.38;;;17.30;99.90;;;;;;5106836;28;20020;-80
2021/08/20 06:34:45;;;;;;;21.92;18.15;;;17.30;99.90;;;;;;5114616;28;20424;-74
2021/08/20 06:37:11;;;;;;;23.27;18.63;;;17.40;99.90;;;;;;5108684;28;20412;-75
2021/08/20 06:39:36;;;;;;;20.85;18.45;;;17.40;99.90;;;;;;5113836;28;20036;-76
2021/08/20 06:42:02;;;;;;;20.48;18.35;;;17.50;99.90;;;;;;5113194;28;20019;-82
2021/08/20 06:44:28;;;;;;;21.20;17.77;;;17.60;99.90;;;;;;5101570;28;20031;-80
2021/08/20 06:46:54;;;;;;;22.17;18.33;;;17.80;99.90;;;;;;5092089;28;20027;-78
2021/08/20 06:49:19;;;;;;;21.92;18.30;;;18.00;99.90;;;;;;5092976;28;20032;-79
2021/08/20 06:51:45;;;;;;;21.25;17.63;;;18.30;99.90;;;;;;5093297;28;20054;-82
2021/08/20 06:54:10;;;;;;;20.17;17.50;;;18.50;99.90;;;;;;5093207;28;20103;-81
2021/08/20 06:56:36;;;;;;;15.95;14.25;;;18.80;99.90;;;;;;5094035;28;20020;-82
2021/08/20 06:59:02;;;;;;;19.02;16.90;;;19.00;99.90;;;;;;5092364;28;20031;-82
2021/08/20 07:01:28;;;;;;;17.25;15.18;;;19.20;99.90;;;;;;5093078;28;20487;-83
2021/08/20 07:03:56;;;;;;;17.25;14.63;;;19.20;99.90;;;;;;5093758;28;20073;-82
2021/08/20 07:06:25;;;;;;;16.40;14.75;;;19.10;99.90;;;;;;5092770;28;20065;-83
2021/08/20 07:08:52;;;;;;;16.63;14.93;;;18.90;99.90;;;;;;5093841;28;20388;-81
2021/08/20 07:11:19;;;;;;;16.80;13.75;;;18.70;99.90;;;;;;5093356;28;20480;-81
2021/08/20 07:13:45;;;;;;;18.17;16.23;;;18.50;99.90;;;;;;5092139;28;20048;-79
2021/08/20 07:16:10;;;;;;;17.15;14.85;;;18.50;99.90;;;;;;5093487;28;20020;-83
2021/08/20 07:18:36;;;;;;;16.48;14.77;;;18.60;99.90;;;;;;5092272;28;20488;-82
2021/08/20 07:21:03;;;;;;;16.98;14.50;;;18.70;99.90;;;;;;5091757;28;20028;-84
2021/08/20 07:23:29;;;;;;;15.75;13.93;;;18.90;99.90;;;;;;5093274;28;20035;-82
2021/08/20 07:25:55;;;;;;;16.67;14.98;;;19.00;99.90;;;;;;5091535;28;20020;-80
2021/08/20 07:28:20;;;;;;;17.23;14.82;;;19.20;99.90;;;;;;5093045;28;20028;-80
2021/08/20 07:30:46;;;;;;;16.90;15.27;;;19.40;99.90;;;;;;5093070;28;20526;-78
2021/08/20 07:33:13;;;;;;;15.77;14.05;;;19.50;99.90;;;;;;5092951;28;20027;-72
2021/08/20 07:35:38;;;;;;;16.17;14.20;;;19.60;99.90;;;;;;5092206;28;20020;-73
2021/08/20 07:38:04;;;;;;;16.90;15.10;;;19.60;99.90;;;;;;5091502;28;20028;-70
2021/08/20 07:40:30;;;;;;;16.00;14.18;;;19.50;99.90;;;;;;5092862;28;20035;-80
2021/08/20 07:42:55;;;;;;;16.20;14.52;;;19.60;99.90;;;;;;5084963;28;20031;-74
2021/08/20 07:45:21;;;;;;;18.85;14.80;;;19.50;99.90;;;;;;5106966;28;20036;-73
2021/08/20 07:47:50;;;;;;;16.98;14.27;;;19.50;99.90;;;;;;5091661;28;20111;-73
2021/08/20 07:50:16;;;;;;;16.00;14.40;;;19.40;99.90;;;;;;5090749;28;20024;-80
2021/08/20 07:52:41;;;;;;;15.40;13.90;;;19.30;99.90;;;;;;5091472;28;20491;-73
2021/08/20 07:55:08;;;;;;;16.83;15.15;;;19.20;99.90;;;;;;5093540;28;20039;-76
2021/08/20 07:57:51;;;;;;;15.27;13.77;;;19.30;99.90;;;;;;5090939;28;20024;-77
2021/08/20 08:00:22;;;;;;;17.15;14.57;;;19.50;99.90;;;;;;5101199;28;20153;-81
2021/08/20 08:02:48;;;;;;;16.33;14.73;;;19.70;99.90;;;;;;5103744;28;20349;-81
2021/08/20 08:05:14;;;;;;;14.82;13.32;;;19.90;99.90;;;;;;5091809;28;20016;-74
2021/08/20 08:07:40;;;;;;;15.90;14.40;;;20.20;99.90;;;;;;5091159;28;20028;-80
2021/08/20 08:10:06;;;;;;;16.20;14.52;;;20.40;99.90;;;;;;5090815;28;20040;-76
2021/08/20 08:12:32;;;;;;;15.15;13.68;;;20.60;99.90;;;;;;5091343;28;20042;-73
2021/08/20 08:14:58;;;;;;;16.50;14.90;;;20.70;99.90;;;;;;5093210;28;20488;-82
2021/08/20 08:17:24;;;;;;;15.10;13.70;;;20.80;99.90;;;;;;5091922;28;20046;-74
2021/08/20 08:19:50;;;;;;;17.48;15.65;;;20.80;99.90;;;;;;5088883;28;20028;-75
2021/08/20 08:22:15;;;;;;;16.27;14.68;;;20.80;99.90;;;;;;5092469;28;20509;-74
2021/08/20 08:24:41;;;;;;;15.93;14.35;;;20.70;99.90;;;;;;5090189;28;20388;-77
2021/08/20 08:27:06;;;;;;;16.60;15.00;;;20.50;99.90;;;;;;5096305;28;20024;-75
2021/08/20 08:29:32;;;;;;;15.13;13.60;;;20.40;99.90;;;;;;5095921;28;20476;-77
2021/08/20 08:31:58;;;;;;;16.02;14.43;;;20.40;99.90;;;;;;5093980;28;20052;-74
2021/08/20 08:34:23;;;;;;;14.80;13.30;;;20.40;99.90;;;;;;5096787;28;20128;-74
2021/08/20 08:36:49;;;;;;;13.45;12.20;;;20.70;99.90;;;;;;5095624;28;20056;-76
2021/08/20 08:39:15;;;;;;;13.65;12.40;;;21.00;99.90;;;;;;5095166;28;20024;-74
2021/08/20 08:41:40;;;;;;;13.43;12.15;;;21.30;99.90;;;;;;5095459;28;20472;-75
2021/08/20 08:44:06;;;;;;;13.30;12.02;;;21.70;99.90;;;;;;5094419;28;20392;-74
2021/08/20 08:46:37;;;;;;;13.40;12.10;;;21.90;99.90;;;;;;5096035;28;20059;-74
2021/08/20 08:49:06;;;;;;;;;;;22.20;99.90;;;;;;5096345;28;20016;-76
2021/08/20 08:51:31;;;;;;;12.50;11.35;;;22.50;99.90;;;;;;5095115;28;20355;-78
2021/08/20 08:53:57;;;;;;;13.10;11.82;;;22.70;99.90;;;;;;5093640;28;20049;-85
2021/08/20 08:56:23;;;;;;;11.15;10.05;;;22.80;99.90;;;;;;5094233;28;20020;-77
2021/08/20 08:58:49;;;;;;;11.65;10.48;;;22.60;99.90;;;;;;5094294;28;20616;-74
2021/08/20 09:01:30;;;;;;;12.43;10.68;;;22.40;99.90;;;;;;5094315;28;20066;-76
2021/08/20 09:04:15;;;;;;;11.60;10.50;;;22.50;99.90;;;;;;5095296;28;20024;-77
2021/08/20 09:06:41;;;;;;;10.57;9.60;;;22.70;99.90;;;;;;5094573;28;20028;-75
2021/08/20 09:09:08;;;;;;;11.80;10.73;;;22.90;99.90;;;;;;5093998;28;20028;-74
2021/08/20 09:11:34;;;;;;;12.20;11.10;;;23.00;99.90;;;;;;5093720;28;20024;-76
2021/08/20 09:13:59;;;;;;;11.35;10.35;;;22.90;99.90;;;;;;5093040;28;20460;-77
2021/08/20 09:16:35;;;;;;;11.45;10.35;;;22.80;99.90;;;;;;5094803;28;20024;-78
2021/08/20 09:19:18;;;;;;;10.50;9.60;;;22.80;99.90;;;;;;5094668;28;20302;-78
2021/08/20 09:21:53;;;;;;;11.32;10.02;;;22.90;99.90;;;;;;5093698;28;20020;-85
2021/08/20 09:24:39;;;;;;;11.25;9.55;;;22.80;99.90;;;;;;5093725;28;20024;-82
2021/08/20 09:27:14;;;;;;;10.60;9.60;;;22.80;99.90;;;;;;5090610;28;20035;-75
2021/08/20 09:30:02;;;;;;;10.75;9.65;;;22.50;99.90;;;;;;5094673;28;20031;-74
2021/08/20 09:32:28;;;;;;;12.02;10.85;;;22.40;99.90;;;;;;5095615;28;20039;-78
2021/08/20 09:34:57;;;;;;;12.40;11.07;;;22.30;99.90;;;;;;5075275;28;20025;-76
2021/08/20 09:37:23;;;;;;;13.35;12.05;;;22.50;99.90;;;;;;5098672;28;20160;-74
2021/08/20 09:39:49;;;;;;;12.98;11.65;;;22.50;99.90;;;;;;5114031;28;20123;-77
2021/08/20 09:42:18;;;;;;;15.70;11.60;;;22.50;99.90;;;;;;5107276;28;20510;-76
2021/08/20 09:44:44;;;;;;;13.90;10.95;;;22.70;99.90;;;;;;5092263;28;20020;-77
2021/08/20 09:47:10;;;;;;;12.68;9.95;;;22.70;99.90;;;;;;5093822;28;20020;-77
2021/08/20 09:49:57;;;;;;;11.98;10.88;;;22.70;99.90;;;;;;5093378;28;20051;-84
2021/08/20 09:52:30;;;;;;;11.57;10.38;;;22.90;99.90;;;;;;5092974;28;20027;-76
2021/08/20 09:54:56;;;;;;;10.23;9.30;;;22.90;99.90;;;;;;5094071;28;20464;-83
2021/08/20 09:57:26;;;;;;;10.15;9.10;;;23.00;99.90;;;;;;5094893;28;20098;-83
2021/08/20 09:59:56;;;;;;;10.95;9.93;;;23.10;99.90;;;;;;5093470;28;20028;-76
2021/08/20 10:02:27;;;;;;;11.50;10.25;;;23.30;99.90;;;;;;5093592;28;20426;-77
2021/08/20 10:04:58;;;;;;;12.15;9.77;;;23.30;99.90;;;;;;5093350;28;20480;-75
2021/08/20 10:07:27;;;;;;;9.95;9.05;;;23.30;99.90;;;;;;5093142;28;20059;-77
2021/08/20 10:09:59;;;;;;;12.80;9.45;;;23.30;99.90;;;;;;5092348;28;20068;-77
2021/08/20 10:12:25;;;;;;;10.15;9.18;;;23.30;99.90;;;;;;5093244;28;20040;-79
2021/08/20 10:14:52;;;;;;;10.73;9.18;;;23.10;99.90;;;;;;5093074;28;20028;-86
2021/08/20 10:17:18;;;;;;;10.38;9.40;;;23.00;99.90;;;;;;5092555;28;20048;-78
2021/08/20 10:19:45;;;;;;;11.98;9.73;;;23.00;99.90;;;;;;5092732;28;20067;-80
2021/08/20 10:22:11;;;;;;;11.50;10.40;;;23.00;99.90;;;;;;5092659;28;20077;-78
2021/08/20 10:24:38;;;;;;;11.25;8.70;;;22.70;99.90;;;;;;5092382;28;20020;-82
2021/08/20 10:27:05;;;;;;;9.02;7.85;;;22.50;99.90;;;;;;5093119;28;20024;-79
2021/08/20 10:29:59;;;;;;;8.98;8.10;;;22.30;99.90;;;;;;5092643;28;20039;-77
2021/08/20 10:32:25;;;;;;;9.90;8.85;;;22.10;99.90;;;;;;5089968;28;20524;-76
2021/08/20 10:34:51;;;;;;;9.95;8.52;;;22.10;99.90;;;;;;5094314;28;20043;-77
2021/08/20 10:37:22;;;;;;;10.25;8.48;;;22.10;99.90;;;;;;5104885;28;20051;-78
2021/08/20 10:39:51;;;;;;;9.82;8.93;;;22.20;99.90;;;;;;5097820;28;20147;-76
2021/08/20 10:42:38;;;;;;;10.27;8.52;;;22.50;99.90;;;;;;5102982;28;20032;-77
2021/08/20 10:45:08;;;;;;;7.03;6.32;;;22.80;99.90;;;;;;5108301;28;20530;-78
2021/08/20 10:47:35;;;;;;;6.80;6.15;;;23.00;99.90;;;;;;5096247;28;20070;-83
2021/08/20 10:50:12;;;;;;;7.57;6.20;;;23.30;99.90;;;;;;5093034;28;20063;-86
2021/08/20 10:52:55;;;;;;;7.93;7.03;;;23.50;99.90;;;;;;5091780;28;20032;-83
2021/08/20 10:55:39;;;;;;;7.28;6.45;;;23.50;99.90;;;;;;5093164;28;20020;-86
2021/08/20 10:58:06;;;;;;;6.80;6.10;;;23.40;99.90;;;;;;5068548;28;20035;-83
2021/08/20 11:00:35;;;;;;;5.30;4.80;;;23.40;99.90;;;;;;5077699;28;20534;-86
2021/08/20 11:03:02;;;;;;;6.05;5.45;;;23.40;99.90;;;;;;5088659;28;20586;-80
2021/08/20 11:05:44;;;;;;;7.65;6.85;;;23.40;99.90;;;;;;5088804;28;20034;-81
2021/08/20 11:08:32;;;;;;;7.57;6.07;;;23.50;99.90;;;;;;5088476;28;20059;-83
2021/08/20 11:10:59;;;;;;;5.88;5.28;;;23.50;99.90;;;;;;5078972;28;20030;-82
2021/08/20 11:13:26;;;;;;;6.90;5.43;;;23.50;99.90;;;;;;5084024;28;20052;-84
2021/08/20 11:15:53;;;;;;;5.05;4.55;;;23.50;99.90;;;;;;5090640;28;20418;-84
2021/08/20 11:18:45;;;;;;;5.45;4.40;;;23.60;99.90;;;;;;5089540;28;20043;-81
2021/08/20 11:21:46;;;;;;;6.72;4.63;;;23.70;99.90;;;;;;5089674;28;20035;-76
2021/08/20 11:24:17;;;;;;;4.43;4.03;;;23.60;99.90;;;;;;5088409;28;20030;-79
2021/08/20 11:26:44;;;;;;;6.00;4.32;;;23.50;99.90;;;;;;5088282;28;20511;-76
2021/08/20 11:29:11;;;;;;;3.83;3.42;;;23.60;99.90;;;;;;5088835;28;20431;-73
2021/08/20 11:31:37;;;;;;;5.38;3.70;;;23.60;99.90;;;;;;5089965;28;20012;-74
2021/08/20 11:34:05;;;;;;;5.75;3.92;;;23.60;99.80;;;;;;5087991;28;20035;-79
2021/08/20 11:36:30;;;;;;;3.47;2.85;;;23.80;99.90;;;;;;5097749;28;20022;-72
2021/08/20 11:38:58;;;;;;;4.97;3.85;;;24.10;99.90;;;;;;5113046;28;20114;-76
2021/08/20 11:41:44;;;;;;;4.75;4.22;;;24.60;99.60;;;;;;5091877;28;20026;-80
2021/08/20 11:44:12;;;;;;;4.57;4.10;;;24.80;99.10;;;;;;5091420;28;20038;-75
2021/08/20 11:46:42;;;;;;;6.03;5.07;;;24.60;98.90;;;;;;5089856;28;20107;-74
2021/08/20 11:49:10;;;;;;;5.35;4.68;;;24.40;99.20;;;;;;5091546;28;20020;-74
2021/08/20 11:51:42;;;;;;;6.63;6.00;;;24.20;98.80;;;;;;5092088;28;20106;-74
2021/08/20 11:54:13;;;;;;;6.05;5.43;;;24.10;98.60;;;;;;5092130;28;20027;-76
2021/08/20 11:56:49;;;;;;;6.28;5.68;;;23.90;98.60;;;;;;5088595;28;20069;-74
2021/08/20 11:59:15;;;;;;;5.50;4.93;;;23.80;98.90;;;;;;5093110;28;20028;-73
2021/08/20 12:01:41;;;;;;;5.38;4.85;;;23.70;99.20;;;;;;5095566;28;20027;-73
2021/08/20 12:04:08;;;;;;;6.10;5.50;;;23.70;99.50;;;;;;5095424;28;20073;-82
2021/08/20 12:06:35;;;;;;;5.25;4.75;;;23.70;99.10;;;;;;5095941;28;20111;-78
2021/08/20 12:09:15;;;;;;;6.45;5.82;;;23.60;99.60;;;;;;5094789;28;20491;-89
2021/08/20 12:11:42;;;;;;;5.85;5.28;;;23.40;99.40;;;;;;5095832;28;20535;-81
2021/08/20 12:14:18;;;;;;;6.60;5.90;;;23.40;99.80;;;;;;5095723;28;20047;-80
2021/08/20 12:16:45;;;;;;;7.40;6.63;;;23.40;99.90;;;;;;5096111;28;20020;-81
2021/08/20 12:19:30;;;;;;;6.50;5.90;;;23.30;99.90;;;;;;5095457;28;20036;-87
2021/08/20 12:22:11;;;;;;;7.13;6.35;;;23.30;99.90;;;;;;5092928;28;20020;-86
2021/08/20 12:24:40;;;;;;;6.90;6.20;;;23.10;99.90;;;;;;5094117;28;20074;-80
2021/08/20 12:27:40;;;;;;;6.65;6.05;;;22.90;99.90;;;;;;5095069;28;20027;-88
2021/08/20 12:30:07;;;;;;;8.23;7.43;;;22.70;99.90;;;;;;5079607;28;20028;-85
2021/08/20 12:32:35;;;;;;;9.18;7.20;;;22.70;99.90;;;;;;5096275;28;20019;-82